Idabel, OK (74745)

12:55 AM CDT on July 07, 2015 (GMT -0500)
Stone Haven | | Change Station
CLOSE
Current Station
Personal Weather Station
Location: Idabel, OK
Elevation: 489 ft
Nearby Weather Stations
Active Advisory: Flood Warning Active Notice: Record Report

Elev 489 ft 33.87 °N, 94.83 °W | Updated 2 seconds ago

Clear
Clear
79.7 °F
Feels Like 83 °F
N
1.0
Wind Variable Wind from South
Gusts 4.0 mph

Today
High -- | Low -- °F
--% Chance of Precip.
Yesterday
High -- | Low -- °F
Precip. -- in
6:14 AM 8:33 PM
Waning Gibbous, 68% visible
Pressure 30.01 in
Visibility 10.0 miles
Clouds Clear
Heat Index 83 °F
Dew Point 73 °F
Humidity 79%
Rainfall 0.00 in
Snow Depth Not available.
UV 0 out of 12
Pollen 3.70 out of 12
Air Quality Not available.
Flu Activity Not available.
METAR K4O4 070535Z AUTO 19006KT 10SM CLR 26/20 A3001 RMK AO2

More Conditions Fewer Conditions

Pressure 30.01 in
Visibility 10.0 miles
Clouds Clear
Heat Index 83 °F
Dew Point 73 °F
Humidity 79%
Rainfall 0.00 in
Snow Depth Not available.
UV 0 out of 12
Pollen 3.70 out of 12
Air Quality Not available.
Flu Activity Not available.
METAR K4O4 070535Z AUTO 19006KT 10SM CLR 26/20 A3001 RMK AO2

More Conditions Fewer Conditions

10-Day Weather Forecast

×

Almanac

Astronomy

Jul. 07, 2015 Rise Set
Actual Time
Civil Twilight
Nautical Twilight
Astronomical Twilight
Moon
Length of Visible Light
Length of Day
Tomorrow will be .
, % of the Moon is Illuminated

Today's Extremes

State Highs State Lows

Community

WunderPhotos

Upload Photos

1,835,733 photos uploaded!

WunderBlogs® & News

Nearby

Air Quality

  Air Quality AQ Index Pollutant
Not available.

Snow Depth

Station Depth Elevation

Earthquake Activity

City Distance Mag. Time & Date
Minimum magnitude displayed is 2.5.

Coastal Water Temperatures

Place Temperature

Stations

Nearby Weather Stations

Station Location Temp. Windchill Dew Point Humidity Wind Precip. Elev Updated Type
                   
Flood Warning
Statement as of 8:19 PM CDT on July 06, 2015

... The Flood Warning extended until Thursday morning... the Flood
Warning continues for
the Red River near DeKalb.
* Until Thursday morning... or until the warning is cancelled.
* At 7:00 PM Monday the stage was 23.8 feet.
* Minor flooding is forecast.
* Flood stage is 24.0 feet.
* Forecast... rise above flood stage by tomorrow morning and continue
to rise to near 24.2 feet by tomorrow evening. The river will fall
below flood stage by Wednesday afternoon.
* Impact... at 24.0 feet... minor lowland flooding and bank erosion.
Move livestock next to the river to higher ground.


Lat... Lon 3397 9516 3367 9448 3359 9448 3367 9475 3391 9516